createdAt,value
2017-07-09T00:00:29.529Z,27.00
2017-07-09T00:02:58.239Z,26.90
2017-07-09T00:05:26.480Z,26.90
2017-07-09T00:07:55.547Z,26.90
2017-07-09T00:10:23.782Z,26.90
2017-07-09T00:12:52.070Z,26.90
2017-07-09T00:15:20.685Z,26.90
2017-07-09T00:17:48.948Z,26.90
2017-07-09T00:20:17.541Z,26.90
2017-07-09T00:22:46.047Z,26.90
2017-07-09T00:25:14.671Z,26.90
2017-07-09T00:27:42.947Z,26.90
2017-07-09T00:30:11.228Z,26.90
2017-07-09T00:32:39.464Z,26.90
2017-07-09T00:35:08.154Z,26.80
2017-07-09T00:37:36.457Z,26.90
2017-07-09T00:40:05.959Z,26.80
2017-07-09T00:42:34.200Z,26.80
2017-07-09T00:45:02.511Z,26.80
2017-07-09T00:47:30.799Z,26.80
2017-07-09T00:49:59.069Z,26.80
2017-07-09T00:52:27.447Z,26.80
2017-07-09T00:54:55.690Z,26.80
2017-07-09T00:57:24.408Z,26.80
2017-07-09T00:59:53.129Z,26.80
2017-07-09T01:02:22.380Z,26.80
2017-07-09T01:04:50.645Z,26.80
2017-07-09T01:07:19.304Z,26.80
2017-07-09T01:09:47.531Z,26.80
2017-07-09T01:12:15.769Z,26.80
2017-07-09T01:14:44.434Z,26.70
2017-07-09T01:17:12.920Z,26.80
2017-07-09T01:19:41.676Z,26.70
2017-07-09T01:22:10.040Z,26.70
2017-07-09T01:24:38.281Z,26.80
2017-07-09T01:27:06.913Z,26.70
2017-07-09T01:29:35.277Z,26.70
2017-07-09T01:32:03.505Z,26.70
2017-07-09T01:34:32.333Z,26.70
2017-07-09T01:37:00.620Z,26.70
2017-07-09T01:39:28.844Z,26.70
2017-07-09T01:41:57.586Z,26.70
2017-07-09T01:44:25.849Z,26.70
2017-07-09T01:46:54.092Z,26.70
2017-07-09T01:49:22.767Z,26.70
2017-07-09T01:51:51.510Z,26.70
2017-07-09T01:54:19.733Z,26.70
2017-07-09T01:56:48.363Z,26.60
2017-07-09T01:59:16.748Z,26.60
2017-07-09T02:01:45.017Z,26.60
2017-07-09T02:04:13.297Z,26.60
2017-07-09T02:06:41.673Z,26.60
2017-07-09T02:09:09.946Z,26.50
2017-07-09T02:11:38.182Z,26.50
2017-07-09T02:14:06.921Z,26.50
2017-07-09T02:16:35.188Z,26.50
2017-07-09T02:19:03.430Z,26.50
2017-07-09T02:21:32.385Z,26.40
2017-07-09T02:24:00.627Z,26.40
2017-07-09T02:26:28.857Z,26.40
2017-07-09T02:28:57.709Z,26.30
2017-07-09T02:31:25.957Z,26.30
2017-07-09T02:33:54.180Z,26.30
2017-07-09T02:36:22.546Z,26.30
2017-07-09T02:38:50.796Z,26.30
2017-07-09T02:41:19.027Z,26.30
2017-07-09T02:43:47.868Z,26.20
2017-07-09T02:46:16.095Z,26.30
2017-07-09T02:48:44.821Z,26.20
2017-07-09T02:51:13.201Z,26.20
2017-07-09T02:53:41.440Z,26.20
2017-07-09T02:56:10.065Z,26.20
2017-07-09T02:58:38.330Z,26.20
2017-07-09T03:01:06.570Z,26.20
2017-07-09T03:03:35.305Z,26.10
2017-07-09T03:06:03.568Z,26.20
2017-07-09T03:08:31.851Z,26.20
2017-07-09T03:11:00.085Z,26.10
2017-07-09T03:13:28.757Z,26.10
2017-07-09T03:15:56.991Z,26.10
2017-07-09T03:18:25.229Z,26.10
2017-07-09T03:20:53.528Z,26.10
2017-07-09T03:23:22.122Z,26.10
2017-07-09T03:25:50.415Z,26.10
2017-07-09T03:28:18.772Z,26.10
2017-07-09T03:30:47.150Z,26.10
2017-07-09T03:33:15.428Z,26.10
2017-07-09T03:35:43.696Z,26.10
2017-07-09T03:38:11.981Z,26.10
2017-07-09T03:40:40.254Z,26.10
2017-07-09T03:43:08.776Z,26.10
2017-07-09T03:45:37.109Z,26.10
2017-07-09T03:48:05.343Z,26.10
2017-07-09T03:50:34.433Z,26.10
2017-07-09T03:53:02.669Z,26.10
2017-07-09T03:55:30.936Z,26.10
2017-07-09T03:57:59.205Z,26.10
2017-07-09T04:00:27.498Z,26.10
2017-07-09T04:02:55.724Z,26.10
2017-07-09T04:05:24.000Z,26.10
2017-07-09T04:07:52.625Z,26.10
2017-07-09T04:10:20.864Z,26.10
2017-07-09T04:12:49.172Z,26.10
2017-07-09T04:15:17.697Z,26.10
2017-07-09T04:17:45.920Z,26.10
2017-07-09T04:20:14.316Z,26.10
2017-07-09T04:22:42.552Z,26.10
2017-07-09T04:25:11.180Z,26.10
2017-07-09T04:27:39.439Z,26.10
2017-07-09T04:30:07.680Z,26.10
2017-07-09T04:32:36.413Z,26.20
2017-07-09T04:35:04.703Z,26.20
2017-07-09T04:37:32.932Z,26.20
2017-07-09T04:40:01.170Z,26.20
2017-07-09T04:42:29.752Z,26.20
2017-07-09T04:44:58.012Z,26.20
2017-07-09T04:47:26.373Z,26.20
2017-07-09T04:49:54.747Z,26.20
2017-07-09T04:52:23.128Z,26.20
2017-07-09T04:54:51.513Z,26.30
2017-07-09T04:57:19.911Z,26.30
2017-07-09T04:59:48.152Z,26.30
2017-07-09T05:02:16.435Z,26.30
2017-07-09T05:04:44.704Z,26.30
2017-07-09T05:07:13.096Z,26.30
2017-07-09T05:09:41.382Z,26.30
2017-07-09T05:12:09.992Z,26.30
2017-07-09T05:14:38.234Z,26.40
2017-07-09T05:17:06.501Z,26.40
2017-07-09T05:19:34.768Z,26.40
2017-07-09T05:22:02.995Z,26.40
2017-07-09T05:24:31.328Z,26.40
2017-07-09T05:26:59.600Z,26.40
2017-07-09T05:29:27.849Z,26.40
2017-07-09T05:31:56.477Z,26.50
2017-07-09T05:34:24.756Z,26.50
2017-07-09T05:36:53.047Z,26.50
2017-07-09T05:39:21.266Z,26.50
2017-07-09T05:41:49.970Z,26.50
2017-07-09T05:44:18.841Z,26.50
2017-07-09T05:46:47.386Z,26.50
2017-07-09T05:49:15.629Z,26.60
2017-07-09T05:51:43.918Z,26.60
2017-07-09T05:54:12.188Z,26.60
2017-07-09T05:56:40.702Z,26.60
2017-07-09T05:59:09.043Z,26.60
2017-07-09T06:01:37.269Z,26.60
2017-07-09T06:04:05.545Z,26.60
2017-07-09T06:06:34.168Z,26.70
2017-07-09T06:09:02.688Z,26.70
2017-07-09T06:11:31.275Z,26.70
2017-07-09T06:13:59.506Z,26.70
2017-07-09T06:16:27.756Z,26.70
2017-07-09T06:18:56.329Z,26.70
2017-07-09T06:21:24.553Z,26.70
2017-07-09T06:23:53.063Z,26.80
2017-07-09T06:26:21.614Z,26.80
2017-07-09T06:28:50.569Z,26.80
2017-07-09T06:31:19.217Z,26.80
2017-07-09T06:33:47.604Z,26.80
2017-07-09T06:36:15.841Z,26.80
2017-07-09T06:38:44.125Z,26.90
2017-07-09T06:41:12.496Z,26.90
2017-07-09T06:43:40.737Z,26.90
2017-07-09T06:46:09.361Z,27.00
2017-07-09T06:48:37.666Z,27.00
2017-07-09T06:51:06.149Z,27.00
2017-07-09T06:53:34.632Z,27.10
2017-07-09T06:56:02.987Z,27.10
2017-07-09T06:58:31.349Z,27.20
2017-07-09T07:00:59.669Z,27.30
2017-07-09T07:03:28.009Z,27.30
2017-07-09T07:05:56.289Z,27.40
2017-07-09T07:08:24.528Z,27.40
2017-07-09T07:10:52.830Z,27.50
2017-07-09T07:13:21.120Z,27.50
2017-07-09T07:15:49.396Z,27.60
2017-07-09T07:18:17.738Z,27.60
2017-07-09T07:20:46.352Z,27.70
2017-07-09T07:23:14.588Z,27.70
2017-07-09T07:25:43.311Z,27.80
2017-07-09T07:28:11.545Z,27.80
2017-07-09T07:30:40.211Z,28.00
2017-07-09T07:33:08.787Z,28.00
2017-07-09T07:35:37.362Z,28.10
2017-07-09T07:38:05.583Z,28.10
2017-07-09T07:40:33.907Z,28.10
2017-07-09T07:43:02.162Z,28.20
2017-07-09T07:45:30.399Z,28.20
2017-07-09T07:47:59.155Z,28.40
2017-07-09T07:50:27.396Z,28.40
2017-07-09T07:52:55.644Z,28.40
2017-07-09T07:55:23.999Z,28.50
2017-07-09T07:57:52.332Z,28.50
2017-07-09T08:00:20.564Z,28.60
2017-07-09T08:02:50.154Z,28.70
2017-07-09T08:05:18.493Z,28.70
2017-07-09T08:07:47.729Z,28.80
2017-07-09T08:10:16.229Z,28.90
2017-07-09T08:12:50.300Z,29.00
2017-07-09T08:15:18.977Z,29.00
2017-07-09T08:17:47.219Z,29.00
2017-07-09T08:20:15.976Z,28.90
2017-07-09T08:22:44.304Z,28.90
2017-07-09T08:25:12.590Z,28.90
2017-07-09T08:27:43.588Z,28.90
2017-07-09T08:30:12.471Z,28.90
2017-07-09T08:32:41.139Z,28.90
2017-07-09T08:35:09.483Z,28.90
2017-07-09T08:37:37.765Z,28.90
2017-07-09T08:40:06.013Z,28.90
2017-07-09T08:42:34.247Z,28.90
2017-07-09T08:45:03.522Z,28.80
2017-07-09T08:47:31.783Z,28.80
2017-07-09T08:50:00.025Z,28.80
2017-07-09T08:52:28.302Z,28.70
2017-07-09T08:54:56.525Z,28.70
2017-07-09T08:57:24.771Z,28.70
2017-07-09T08:59:53.528Z,28.70
2017-07-09T09:02:22.354Z,28.70
2017-07-09T09:04:51.396Z,28.70
2017-07-09T09:07:20.455Z,28.70
2017-07-09T09:09:48.845Z,28.70
2017-07-09T09:12:17.083Z,28.60
2017-07-09T09:14:45.395Z,28.60
2017-07-09T09:17:13.652Z,28.60
2017-07-09T09:19:41.936Z,28.50
2017-07-09T09:22:10.444Z,28.50
2017-07-09T09:24:39.305Z,28.50
2017-07-09T09:27:07.544Z,28.40
2017-07-09T09:29:35.864Z,28.40
2017-07-09T09:32:04.158Z,28.40
2017-07-09T09:34:32.406Z,28.40
2017-07-09T09:37:00.773Z,28.30
2017-07-09T09:39:29.982Z,28.30
2017-07-09T09:42:00.464Z,28.30
2017-07-09T09:44:30.287Z,28.30
2017-07-09T09:46:59.696Z,28.30
2017-07-09T09:49:28.127Z,28.30
2017-07-09T09:51:56.485Z,28.30
2017-07-09T09:54:24.762Z,28.30
2017-07-09T09:56:53.276Z,28.30
2017-07-09T09:59:21.537Z,28.30
2017-07-09T10:01:49.780Z,28.20
2017-07-09T10:04:18.037Z,28.20
2017-07-09T10:06:46.335Z,28.20
2017-07-09T10:09:14.636Z,28.20
2017-07-09T10:11:43.706Z,28.20
2017-07-09T10:14:12.114Z,28.20
2017-07-09T10:16:40.365Z,28.20
2017-07-09T10:19:08.606Z,28.20
2017-07-09T10:21:36.870Z,28.30
2017-07-09T10:24:05.265Z,28.40
2017-07-09T10:26:33.508Z,28.50
2017-07-09T10:29:01.819Z,28.60
2017-07-09T10:31:30.509Z,28.90
2017-07-09T10:33:59.045Z,28.90
2017-07-09T10:36:27.804Z,29.10
2017-07-09T10:38:56.048Z,29.10
2017-07-09T10:41:24.880Z,29.20
2017-07-09T10:43:53.255Z,29.30
2017-07-09T10:46:21.496Z,29.50
2017-07-09T10:48:49.901Z,29.60
2017-07-09T10:51:18.284Z,29.70
2017-07-09T10:53:46.568Z,29.70
2017-07-09T10:56:14.829Z,29.80
2017-07-09T10:58:43.106Z,29.90
2017-07-09T11:01:11.346Z,30.00
2017-07-09T11:03:40.318Z,30.00
2017-07-09T11:06:08.584Z,30.00
2017-07-09T11:08:36.827Z,30.00
2017-07-09T11:11:05.062Z,30.00
2017-07-09T11:13:34.030Z,30.00
2017-07-09T11:16:02.289Z,30.00
2017-07-09T11:18:30.518Z,30.00
2017-07-09T11:20:58.839Z,29.90
2017-07-09T11:23:27.813Z,29.90
2017-07-09T11:25:56.987Z,29.90
2017-07-09T11:28:25.294Z,29.90
2017-07-09T11:30:53.914Z,29.90
2017-07-09T11:33:22.283Z,29.90
2017-07-09T11:35:50.582Z,29.90
2017-07-09T11:38:18.918Z,29.90
2017-07-09T11:40:47.149Z,30.00
2017-07-09T11:45:50.084Z,30.00
2017-07-09T11:48:18.387Z,30.10
2017-07-09T11:50:46.878Z,30.10
2017-07-09T11:53:15.224Z,30.20
2017-07-09T11:55:43.492Z,30.20
2017-07-09T11:58:12.796Z,30.30
2017-07-09T12:00:45.853Z,30.40
2017-07-09T12:03:25.307Z,30.50
2017-07-09T12:05:53.590Z,30.60
2017-07-09T12:08:22.032Z,30.70
2017-07-09T12:10:50.743Z,30.80
2017-07-09T12:13:19.584Z,30.90
2017-07-09T12:15:48.062Z,31.00
2017-07-09T12:18:16.356Z,31.20
2017-07-09T12:20:45.230Z,31.50
2017-07-09T12:23:13.512Z,31.50
2017-07-09T12:25:41.756Z,31.60
2017-07-09T12:28:10.141Z,31.80
2017-07-09T12:30:38.409Z,31.90
2017-07-09T12:33:06.681Z,32.00
2017-07-09T12:35:35.682Z,32.10
2017-07-09T12:38:03.965Z,32.20
2017-07-09T12:40:32.180Z,32.30
2017-07-09T12:43:00.472Z,32.40
2017-07-09T12:45:28.801Z,32.40
2017-07-09T12:47:57.081Z,32.50
2017-07-09T12:50:25.349Z,32.60
2017-07-09T12:52:53.589Z,32.60
2017-07-09T12:55:21.835Z,32.60
2017-07-09T12:57:50.522Z,32.60
2017-07-09T13:00:19.370Z,32.60
2017-07-09T13:02:47.977Z,32.70
2017-07-09T13:05:16.316Z,32.70
2017-07-09T13:07:44.557Z,32.60
2017-07-09T13:10:13.206Z,32.60
2017-07-09T13:12:41.569Z,32.60
2017-07-09T13:15:09.806Z,32.70
2017-07-09T13:17:38.430Z,32.80
2017-07-09T13:20:06.904Z,32.80
2017-07-09T13:22:35.791Z,32.90
2017-07-09T13:25:04.020Z,32.90
2017-07-09T13:27:32.457Z,33.00
2017-07-09T13:30:00.685Z,33.10
2017-07-09T13:32:29.333Z,33.20
2017-07-09T13:34:57.685Z,33.30
2017-07-09T13:37:25.946Z,33.30
2017-07-09T13:39:54.470Z,33.40
2017-07-09T13:42:23.253Z,33.40
2017-07-09T13:44:51.486Z,33.30
2017-07-09T13:47:19.777Z,33.30
2017-07-09T13:49:48.184Z,33.20
2017-07-09T13:52:16.432Z,33.10
2017-07-09T13:54:44.674Z,33.00
2017-07-09T13:57:13.747Z,33.00
2017-07-09T13:59:42.089Z,33.00
2017-07-09T14:02:10.320Z,33.00
2017-07-09T14:04:39.042Z,32.90
2017-07-09T14:07:07.344Z,32.90
2017-07-09T14:09:35.589Z,32.90
2017-07-09T14:12:03.905Z,32.90
2017-07-09T14:14:32.200Z,32.90
2017-07-09T14:17:00.468Z,32.80
2017-07-09T14:19:28.792Z,32.70
2017-07-09T14:21:57.045Z,32.70
2017-07-09T14:24:25.710Z,32.70
2017-07-09T14:26:54.064Z,32.70
2017-07-09T14:29:22.293Z,32.70
2017-07-09T14:31:50.521Z,32.70
2017-07-09T14:34:18.833Z,32.70
2017-07-09T14:36:47.073Z,32.70
2017-07-09T14:39:15.321Z,32.70
2017-07-09T14:41:43.614Z,32.70
2017-07-09T14:44:11.970Z,32.70
2017-07-09T14:46:40.273Z,32.70
2017-07-09T14:49:08.965Z,32.70
2017-07-09T14:51:37.449Z,32.70
2017-07-09T14:54:05.697Z,32.70
2017-07-09T14:56:33.976Z,32.60
2017-07-09T14:59:02.247Z,32.70
2017-07-09T15:01:30.485Z,32.70
2017-07-09T15:03:58.821Z,32.70
2017-07-09T15:06:27.080Z,32.60
2017-07-09T15:08:55.341Z,32.60
2017-07-09T15:11:23.617Z,32.50
2017-07-09T15:13:52.102Z,32.40
2017-07-09T15:16:20.487Z,32.40
2017-07-09T15:18:48.759Z,32.40
2017-07-09T15:21:17.158Z,32.30
2017-07-09T15:23:45.393Z,32.30
2017-07-09T15:26:13.696Z,32.30
2017-07-09T15:28:42.205Z,32.20
2017-07-09T15:31:10.446Z,32.20
2017-07-09T15:33:38.738Z,32.20
2017-07-09T15:36:06.961Z,32.10
2017-07-09T15:38:35.785Z,32.00
2017-07-09T15:41:04.169Z,31.90
2017-07-09T15:43:32.518Z,31.90
2017-07-09T15:46:00.842Z,31.80
2017-07-09T15:48:29.848Z,31.70
2017-07-09T15:50:58.110Z,31.60
2017-07-09T15:53:26.340Z,31.60
2017-07-09T15:55:54.631Z,31.50
2017-07-09T15:58:22.917Z,31.50
2017-07-09T16:00:51.434Z,31.50
2017-07-09T16:03:19.879Z,31.40
2017-07-09T16:05:48.114Z,31.40
2017-07-09T16:08:16.430Z,31.40
2017-07-09T16:10:44.706Z,31.30
2017-07-09T16:13:13.041Z,31.30
2017-07-09T16:15:41.241Z,31.20
2017-07-09T16:18:10.360Z,31.20
2017-07-09T16:20:38.631Z,31.20
2017-07-09T16:23:06.900Z,31.10
2017-07-09T16:25:35.161Z,31.10
2017-07-09T16:28:03.947Z,31.10
2017-07-09T16:30:32.249Z,31.00
2017-07-09T16:33:00.518Z,31.00
2017-07-09T16:35:28.860Z,30.90
2017-07-09T16:37:58.268Z,30.80
2017-07-09T16:40:26.545Z,30.80
2017-07-09T16:42:54.866Z,30.80
2017-07-09T16:45:23.154Z,30.70
2017-07-09T16:47:51.417Z,30.60
2017-07-09T16:50:19.644Z,30.60
2017-07-09T16:52:48.281Z,30.50
2017-07-09T16:55:16.666Z,30.50
2017-07-09T16:57:44.886Z,30.40
2017-07-09T17:00:13.527Z,30.30
2017-07-09T17:02:41.789Z,30.30
2017-07-09T17:05:10.065Z,30.20
2017-07-09T17:07:38.340Z,30.20
2017-07-09T17:10:06.733Z,30.20
2017-07-09T17:12:34.952Z,30.20
2017-07-09T17:15:03.200Z,30.10
2017-07-09T17:17:31.494Z,30.10
2017-07-09T17:19:59.836Z,30.00
2017-07-09T17:22:28.216Z,30.00
2017-07-09T17:24:57.040Z,29.90
2017-07-09T17:27:25.350Z,29.80
2017-07-09T17:29:53.678Z,29.80
2017-07-09T17:32:22.383Z,29.80
2017-07-09T17:34:51.938Z,29.80
2017-07-09T17:37:20.417Z,29.80
2017-07-09T17:39:48.741Z,29.70
2017-07-09T17:42:17.061Z,29.60
2017-07-09T17:44:45.582Z,29.60
2017-07-09T17:47:14.237Z,29.50
2017-07-09T17:49:43.300Z,29.50
2017-07-09T17:52:11.606Z,29.50
2017-07-09T17:54:39.875Z,29.40
2017-07-09T17:57:08.120Z,29.40
2017-07-09T17:59:36.352Z,29.30
2017-07-09T18:02:04.703Z,29.30
2017-07-09T18:04:34.926Z,29.20
2017-07-09T18:07:03.832Z,29.20
2017-07-09T18:09:32.097Z,29.10
2017-07-09T18:12:00.344Z,29.00
2017-07-09T18:14:28.935Z,29.00
2017-07-09T18:16:57.332Z,28.90
2017-07-09T18:19:25.608Z,28.90
2017-07-09T18:21:54.117Z,28.80
2017-07-09T18:24:22.857Z,28.80
2017-07-09T18:26:51.085Z,28.70
2017-07-09T18:29:19.359Z,28.70
2017-07-09T18:31:47.677Z,28.60
2017-07-09T18:34:15.915Z,28.60
2017-07-09T18:36:44.256Z,28.60
2017-07-09T18:39:12.491Z,28.50
2017-07-09T18:41:40.843Z,28.50
2017-07-09T18:44:09.588Z,28.50
2017-07-09T18:46:37.827Z,28.50
2017-07-09T18:49:06.115Z,28.50
2017-07-09T18:51:34.532Z,28.40
2017-07-09T18:54:02.805Z,28.40
2017-07-09T18:56:31.039Z,28.40
2017-07-09T18:58:59.808Z,28.20
2017-07-09T19:01:28.046Z,28.20
2017-07-09T19:03:56.553Z,28.20
2017-07-09T19:06:24.907Z,28.10
2017-07-09T19:08:53.140Z,28.00
2017-07-09T19:11:21.372Z,28.00
2017-07-09T19:13:49.642Z,28.00
2017-07-09T19:16:17.896Z,28.00
2017-07-09T19:18:46.173Z,27.90
2017-07-09T19:21:14.691Z,27.90
2017-07-09T19:23:43.003Z,27.90
2017-07-09T19:26:11.517Z,27.80
2017-07-09T19:28:40.644Z,27.80
2017-07-09T19:31:13.907Z,27.80
2017-07-09T19:33:42.701Z,27.70
2017-07-09T19:36:11.115Z,27.70
2017-07-09T19:38:39.454Z,27.70
2017-07-09T19:41:08.333Z,27.60
2017-07-09T19:43:37.597Z,27.60
2017-07-09T19:46:06.136Z,27.60
2017-07-09T19:48:34.428Z,27.50
2017-07-09T19:51:03.022Z,27.50
2017-07-09T19:53:31.387Z,27.50
2017-07-09T19:55:59.680Z,27.50
2017-07-09T19:58:28.006Z,27.40
2017-07-09T20:00:56.244Z,27.40
2017-07-09T20:03:24.980Z,27.40
2017-07-09T20:05:53.217Z,27.40
2017-07-09T20:08:21.765Z,27.40
2017-07-09T20:10:50.073Z,27.40
2017-07-09T20:13:18.493Z,27.30
2017-07-09T20:15:46.760Z,27.30
2017-07-09T20:18:15.015Z,27.20
2017-07-09T20:20:43.255Z,27.20
2017-07-09T20:23:11.576Z,27.10
2017-07-09T20:25:39.870Z,27.00
2017-07-09T20:28:08.113Z,26.90
2017-07-09T20:30:36.828Z,26.80
2017-07-09T20:33:05.223Z,26.80
2017-07-09T20:35:33.492Z,26.70
2017-07-09T20:38:01.837Z,26.70
2017-07-09T20:40:30.242Z,26.60
2017-07-09T20:42:58.520Z,26.50
2017-07-09T20:45:26.752Z,26.40
2017-07-09T20:47:55.598Z,26.40
2017-07-09T20:50:24.116Z,26.40
2017-07-09T20:52:52.859Z,26.30
2017-07-09T20:55:21.135Z,26.30
2017-07-09T20:57:49.430Z,26.30
2017-07-09T21:00:17.666Z,26.30
2017-07-09T21:02:45.938Z,26.20
2017-07-09T21:05:14.900Z,26.20
2017-07-09T21:07:43.528Z,26.10
2017-07-09T21:10:11.842Z,26.10
2017-07-09T21:12:40.197Z,26.00
2017-07-09T21:15:08.467Z,26.00
2017-07-09T21:17:36.862Z,25.90
2017-07-09T21:20:05.255Z,26.00
2017-07-09T21:22:33.487Z,26.20
2017-07-09T21:25:01.781Z,26.30
2017-07-09T21:27:30.034Z,26.40
2017-07-09T21:29:58.439Z,26.60
2017-07-09T21:32:27.040Z,26.70
2017-07-09T21:34:55.277Z,26.80
2017-07-09T21:37:23.521Z,26.90
2017-07-09T21:39:52.195Z,27.00
2017-07-09T21:42:21.042Z,27.10
2017-07-09T21:44:49.309Z,27.10
2017-07-09T21:47:18.709Z,27.10
2017-07-09T21:49:46.950Z,27.20
2017-07-09T21:52:15.180Z,27.20
2017-07-09T21:54:43.461Z,27.20
2017-07-09T21:57:11.703Z,27.20
2017-07-09T21:59:39.936Z,27.30
2017-07-09T22:02:08.940Z,27.30
2017-07-09T22:04:37.384Z,27.30
2017-07-09T22:07:06.456Z,27.30
2017-07-09T22:09:34.724Z,27.30
2017-07-09T22:12:02.956Z,27.30
2017-07-09T22:14:31.201Z,27.30
2017-07-09T22:17:00.554Z,27.30
2017-07-09T22:19:28.874Z,27.30
2017-07-09T22:21:57.108Z,27.30
2017-07-09T22:24:25.396Z,27.30
2017-07-09T22:26:53.630Z,27.30
2017-07-09T22:29:21.864Z,27.20
2017-07-09T22:31:50.127Z,27.20
2017-07-09T22:34:18.366Z,27.20
2017-07-09T22:36:46.997Z,27.10
2017-07-09T22:39:15.289Z,27.10
2017-07-09T22:41:43.530Z,27.00
2017-07-09T22:44:11.780Z,27.00
2017-07-09T22:46:40.452Z,26.90
2017-07-09T22:49:08.685Z,26.90
2017-07-09T22:51:37.459Z,26.90
2017-07-09T22:54:06.672Z,26.90
2017-07-09T22:56:34.919Z,26.90
2017-07-09T22:59:03.179Z,26.80
2017-07-09T23:01:31.832Z,26.80
2017-07-09T23:04:00.092Z,26.80
2017-07-09T23:06:28.323Z,26.80
2017-07-09T23:08:56.881Z,26.70
2017-07-09T23:11:25.113Z,26.70
2017-07-09T23:13:53.353Z,26.70
2017-07-09T23:16:21.636Z,26.70
2017-07-09T23:18:49.866Z,26.70
2017-07-09T23:21:18.098Z,26.70
2017-07-09T23:23:46.347Z,26.60
2017-07-09T23:26:14.989Z,26.60
2017-07-09T23:28:43.224Z,26.60
2017-07-09T23:31:11.557Z,26.50
2017-07-09T23:33:39.816Z,26.50
2017-07-09T23:36:08.057Z,26.50
2017-07-09T23:38:36.347Z,26.50
2017-07-09T23:41:04.580Z,26.40
2017-07-09T23:43:33.227Z,26.40
2017-07-09T23:46:01.500Z,26.40
2017-07-09T23:48:29.732Z,26.40
2017-07-09T23:50:58.369Z,26.40
2017-07-09T23:53:26.628Z,26.40
2017-07-09T23:55:54.862Z,26.30
2017-07-09T23:58:23.515Z,26.30
